Time;durP1;ratioP1;P1;durP2;ratioP2;P2;SDS_P1;SDS_P2;PMS_P1;PMS_P2;Temp;Humidity;BMP_temperature;BMP_pressure;BME280_temperature;BME280_humidity;BME280_pressure;Samples;Min_cycle;Max_cycle;Signal;HPM_P1;HPM_P2
2023/06/20 00:01:59;;;;;;;;;;;23.80;64.20;;;;;;5045250;28;19919;-70
2023/06/20 00:04:24;;;;;;;;;;;23.80;64.20;;;;;;5076678;28;19916;-70
2023/06/20 00:06:50;;;;;;;;;;;23.80;64.30;;;;;;4988089;28;19914;-70
2023/06/20 00:09:15;;;;;;;;;;;23.80;64.30;;;;;;4988217;28;19944;-70
2023/06/20 00:11:40;;;;;;;;;;;23.70;64.40;;;;;;4986982;28;19917;-70
2023/06/20 00:14:06;;;;;;;;;;;23.70;65.00;;;;;;4988018;28;19914;-70
2023/06/20 00:16:31;;;;;;;;;;;23.70;64.30;;;;;;4987905;28;19967;-70
2023/06/20 00:18:57;;;;;;;;;;;23.70;64.40;;;;;;4988143;28;19945;-70
2023/06/20 00:21:25;;;;;;;;;;;23.70;64.60;;;;;;4990434;28;19920;-70
2023/06/20 00:23:54;;;;;;;;;;;23.60;64.50;;;;;;4968573;28;19929;-70
2023/06/20 00:26:20;;;;;;;;;;;23.60;64.60;;;;;;4983274;28;19918;-70
2023/06/20 00:28:46;;;;;;;;;;;23.60;64.70;;;;;;5004190;28;19983;-70
2023/06/20 00:31:11;;;;;;;;;;;23.60;64.80;;;;;;4987613;28;20351;-70
2023/06/20 00:33:37;;;;;;;;;;;23.60;64.70;;;;;;4987854;28;20409;-70
2023/06/20 00:36:03;;;;;;;;;;;23.60;64.70;;;;;;4987664;28;19964;-70
2023/06/20 00:38:29;;;;;;;;;;;23.60;64.80;;;;;;4987730;28;19970;-70
2023/06/20 00:40:57;;;;;;;;;;;23.50;64.70;;;;;;4987803;28;19918;-70
2023/06/20 00:43:23;;;;;;;;;;;23.40;64.90;;;;;;4987541;28;19966;-70
2023/06/20 00:45:49;;;;;;;;;;;23.50;64.70;;;;;;4987504;28;19913;-70
2023/06/20 00:48:15;;;;;;;;;;;23.50;64.80;;;;;;4987528;28;19917;-70
2023/06/20 00:50:41;;;;;;;;;;;23.40;64.90;;;;;;4991268;28;19920;-70
2023/06/20 00:53:07;;;;;;;;;;;23.40;64.70;;;;;;4987408;28;19918;-70
2023/06/20 00:55:33;;;;;;;;;;;23.40;65.10;;;;;;4986259;28;19955;-70
2023/06/20 00:58:00;;;;;;;;;;;23.40;65.10;;;;;;4987344;28;19913;-70
2023/06/20 01:00:27;;;;;;;;;;;23.40;65.10;;;;;;4987370;28;20003;-70
2023/06/20 01:02:54;;;;;;;;;;;23.40;65.10;;;;;;4987367;28;20720;-70
2023/06/20 01:05:26;;;;;;;;;;;23.30;65.30;;;;;;5001524;28;19913;-70
2023/06/20 01:07:57;;;;;;;;;;;23.30;65.20;;;;;;4986451;28;19921;-70
2023/06/20 01:10:38;;;;;;;;;;;23.30;65.40;;;;;;4987471;28;19918;-70
2023/06/20 01:13:20;;;;;;;;;;;23.30;65.30;;;;;;4987209;28;19914;-70
2023/06/20 01:16:10;;;;;;;;;;;23.30;65.40;;;;;;4986920;28;19914;-70
2023/06/20 01:18:54;;;;;;;;;;;23.20;65.40;;;;;;4987461;28;19914;-70
2023/06/20 01:21:25;;;;;;;;;;;23.20;65.40;;;;;;4990611;28;19987;-70
2023/06/20 01:24:03;;;;;;;;;;;23.20;65.30;;;;;;4983359;28;19933;-70
2023/06/20 01:26:37;;;;;;;;;;;23.10;65.50;;;;;;4997534;28;19914;-70
2023/06/20 01:29:06;;;;;;;;;;;23.10;65.50;;;;;;5005410;28;19929;-70
2023/06/20 01:31:33;;;;;;;;;;;23.10;65.60;;;;;;5006788;28;19916;-70
2023/06/20 01:34:08;;;;;;;;;;;23.10;65.80;;;;;;4987591;28;20055;-70
2023/06/20 01:36:38;;;;;;;;;;;23.10;65.70;;;;;;4986938;28;19921;-70
2023/06/20 01:39:08;;;;;;;;;;;23.10;65.70;;;;;;4985521;28;20394;-70
2023/06/20 01:41:39;;;;;;;;;;;23.00;65.40;;;;;;4987070;28;20394;-70
2023/06/20 01:44:06;;;;;;;;;;;23.00;65.90;;;;;;4987087;28;19917;-70
2023/06/20 01:46:34;;;;;;;;;;;23.00;65.90;;;;;;4986967;28;19910;-70
2023/06/20 01:49:00;;;;;;;;;;;23.00;65.90;;;;;;4987126;28;20000;-70
2023/06/20 01:51:27;;;;;;;;;;;22.90;65.80;;;;;;4990644;28;19921;-70
2023/06/20 01:53:53;;;;;;;;;;;23.00;66.00;;;;;;4986835;28;19989;-70
2023/06/20 01:56:19;;;;;;;;;;;22.90;66.00;;;;;;4985058;28;19993;-70
2023/06/20 01:58:45;;;;;;;;;;;22.90;66.10;;;;;;4986788;28;20012;-70
2023/06/20 02:01:11;;;;;;;;;;;22.90;66.10;;;;;;4986882;28;20401;-70
2023/06/20 02:03:41;;;;;;;;;;;22.90;66.20;;;;;;4987029;28;19910;-70
2023/06/20 02:06:08;;;;;;;;;;;22.90;66.10;;;;;;4986644;28;20347;-70
2023/06/20 02:08:34;;;;;;;;;;;22.80;66.20;;;;;;4985260;28;20675;-70
2023/06/20 02:11:00;;;;;;;;;;;22.80;66.30;;;;;;4986837;28;20545;-70
2023/06/20 02:13:26;;;;;;;;;;;22.80;66.40;;;;;;4986687;28;19914;-70
2023/06/20 02:15:52;;;;;;;;;;;22.80;66.30;;;;;;4986453;28;20059;-70
2023/06/20 02:18:19;;;;;;;;;;;22.80;66.40;;;;;;4985516;28;19925;-70
2023/06/20 02:20:48;;;;;;;;;;;22.80;66.40;;;;;;4988828;28;20343;-70
2023/06/20 02:23:15;;;;;;;;;;;22.70;66.30;;;;;;4985817;28;19961;-70
2023/06/20 02:25:44;;;;;;;;;;;22.70;66.40;;;;;;4986420;28;19917;-70
2023/06/20 02:28:12;;;;;;;;;;;22.70;66.60;;;;;;4986281;28;19913;-70
2023/06/20 02:30:37;;;;;;;;;;;22.70;66.60;;;;;;4986709;28;20011;-70
2023/06/20 02:33:05;;;;;;;;;;;22.70;66.60;;;;;;4985234;28;20044;-70
2023/06/20 02:35:31;;;;;;;;;;;22.70;66.60;;;;;;5043628;28;19916;-70
2023/06/20 02:37:58;;;;;;;;;;;22.70;66.50;;;;;;5088582;28;19912;-70
2023/06/20 02:40:24;;;;;;;;;;;22.70;66.70;;;;;;5088748;28;19913;-70
2023/06/20 02:42:49;;;;;;;;;;;22.60;66.60;;;;;;5088610;28;19914;-70
2023/06/20 02:45:15;;;;;;;;;;;22.60;66.70;;;;;;5088690;28;19908;-70
2023/06/20 02:47:59;;;;;;;;;;;22.60;66.80;;;;;;4991248;28;19987;-70
2023/06/20 02:50:41;;;;;;;;;;;22.60;66.70;;;;;;4987767;28;20002;-70
2023/06/20 02:53:32;;;;;;;;;;;22.60;66.90;;;;;;4966840;28;19910;-70
2023/06/20 02:56:02;;;;;;;;;;;22.60;66.90;;;;;;4951058;28;19914;-70
2023/06/20 02:58:29;;;;;;;;;;;22.60;67.00;;;;;;4966758;28;19914;-70
2023/06/20 03:00:57;;;;;;;;;;;22.60;66.80;;;;;;4966833;28;19936;-70
2023/06/20 03:03:24;;;;;;;;;;;22.60;66.90;;;;;;4988662;28;19987;-70
2023/06/20 03:05:50;;;;;;;;;;;22.60;67.10;;;;;;4985857;28;19913;-70
2023/06/20 03:08:17;;;;;;;;;;;22.60;67.00;;;;;;4985782;28;20277;-70
2023/06/20 03:10:43;;;;;;;;;;;22.50;67.00;;;;;;4986016;28;19957;-70
2023/06/20 03:13:13;;;;;;;;;;;22.60;66.90;;;;;;4985527;28;19930;-70
2023/06/20 03:15:39;;;;;;;;;;;22.60;67.30;;;;;;4983251;28;20004;-70
2023/06/20 03:18:04;;;;;;;;;;;22.50;67.00;;;;;;4986062;28;20016;-70
2023/06/20 03:20:30;;;;;;;;;;;22.50;67.20;;;;;;4988362;28;20426;-70
2023/06/20 03:22:55;;;;;;;;;;;22.50;67.10;;;;;;4986305;28;19922;-70
2023/06/20 03:25:21;;;;;;;;;;;22.50;67.10;;;;;;4983947;28;19914;-70
2023/06/20 03:27:47;;;;;;;;;;;22.50;67.30;;;;;;4985471;28;19917;-70
2023/06/20 03:30:13;;;;;;;;;;;22.50;67.30;;;;;;4990446;28;20617;-70
2023/06/20 03:32:40;;;;;;;;;;;22.40;67.20;;;;;;5034659;28;19914;-70
2023/06/20 03:35:06;;;;;;;;;;;22.40;67.40;;;;;;4989295;28;19941;-70
2023/06/20 03:37:31;;;;;;;;;;;22.40;67.30;;;;;;4988650;28;19952;-70
2023/06/20 03:39:57;;;;;;;;;;;22.40;67.40;;;;;;4988773;28;20716;-70
2023/06/20 03:42:22;;;;;;;;;;;22.40;67.50;;;;;;4987673;28;20767;-70
2023/06/20 03:44:48;;;;;;;;;;;22.40;67.60;;;;;;4988666;28;19921;-70
2023/06/20 03:47:13;;;;;;;;;;;22.40;67.50;;;;;;4988500;28;19913;-70
2023/06/20 03:49:39;;;;;;;;;;;22.40;67.60;;;;;;4988911;28;19918;-70
2023/06/20 03:52:05;;;;;;;;;;;22.30;67.60;;;;;;4992357;28;20001;-70
2023/06/20 03:54:30;;;;;;;;;;;22.30;67.70;;;;;;4988624;28;19910;-70
2023/06/20 03:56:56;;;;;;;;;;;22.30;67.50;;;;;;4988353;28;19913;-70
2023/06/20 03:59:21;;;;;;;;;;;22.30;67.70;;;;;;4988511;28;19914;-70
2023/06/20 04:01:47;;;;;;;;;;;22.30;67.70;;;;;;4988627;28;20869;-70
2023/06/20 04:04:13;;;;;;;;;;;22.30;67.80;;;;;;4988545;28;19917;-70
2023/06/20 04:06:39;;;;;;;;;;;22.30;67.90;;;;;;4988458;28;19909;-70
2023/06/20 04:09:05;;;;;;;;;;;22.30;67.90;;;;;;4988325;28;19921;-70
2023/06/20 04:11:30;;;;;;;;;;;22.30;68.10;;;;;;4988313;28;19917;-70
2023/06/20 04:13:56;;;;;;;;;;;22.30;68.00;;;;;;4988140;28;19914;-70
2023/06/20 04:16:21;;;;;;;;;;;22.30;68.20;;;;;;4988147;28;19921;-70
2023/06/20 04:18:47;;;;;;;;;;;22.30;67.60;;;;;;4988327;28;19917;-70
2023/06/20 04:21:12;;;;;;;;;;;22.30;68.20;;;;;;4992153;28;20668;-70
2023/06/20 04:23:38;;;;;;;;;;;22.30;68.20;;;;;;5004593;28;19956;-70
2023/06/20 04:26:03;;;;;;;;;;;22.20;68.10;;;;;;4988044;28;19966;-70
2023/06/20 04:28:29;;;;;;;;;;;22.30;68.10;;;;;;4986747;28;19990;-70
2023/06/20 04:30:55;;;;;;;;;;;22.30;68.10;;;;;;4988183;28;19980;-70
2023/06/20 04:33:22;;;;;;;;;;;22.30;68.40;;;;;;4988141;28;19921;-70
2023/06/20 04:35:47;;;;;;;;;;;22.30;68.60;;;;;;4988006;28;19982;-70
2023/06/20 04:38:13;;;;;;;;;;;22.30;68.30;;;;;;4987956;28;20256;-70
2023/06/20 04:40:39;;;;;;;;;;;22.30;68.60;;;;;;4988168;28;19913;-70
2023/06/20 04:43:04;;;;;;;;;;;22.30;68.70;;;;;;5048173;28;19916;-70
2023/06/20 04:45:30;;;;;;;;;;;22.20;68.30;;;;;;5085237;28;19908;-70
2023/06/20 04:47:56;;;;;;;;;;;22.30;68.60;;;;;;4987796;28;19941;-70
2023/06/20 04:50:22;;;;;;;;;;;22.30;68.60;;;;;;4988831;28;20038;-70
2023/06/20 04:52:48;;;;;;;;;;;22.30;68.80;;;;;;4989986;28;19938;-70
2023/06/20 04:55:13;;;;;;;;;;;22.20;68.70;;;;;;4987733;28;19913;-70
2023/06/20 04:57:39;;;;;;;;;;;22.30;68.90;;;;;;4987376;28;19918;-70
2023/06/20 05:00:10;;;;;;;;;;;22.30;68.90;;;;;;4987921;28;19967;-70
2023/06/20 05:02:36;;;;;;;;;;;22.30;69.40;;;;;;4987589;28;19921;-70
2023/06/20 05:05:01;;;;;;;;;;;22.30;69.00;;;;;;5002136;28;19929;-70
2023/06/20 05:07:27;;;;;;;;;;;22.30;69.10;;;;;;4987291;28;20368;-70
2023/06/20 05:09:52;;;;;;;;;;;22.30;69.00;;;;;;4987568;28;20285;-70
2023/06/20 05:12:18;;;;;;;;;;;22.30;69.10;;;;;;4987396;28;19966;-70
2023/06/20 05:14:43;;;;;;;;;;;22.30;69.10;;;;;;4987317;28;19920;-70
2023/06/20 05:17:09;;;;;;;;;;;22.30;69.20;;;;;;4986993;28;19910;-70
2023/06/20 05:19:34;;;;;;;;;;;22.30;69.10;;;;;;4987483;28;19917;-70
2023/06/20 05:22:00;;;;;;;;;;;22.30;69.20;;;;;;4985826;28;19997;-70
2023/06/20 05:24:25;;;;;;;;;;;22.30;69.20;;;;;;4986818;28;19910;-70
2023/06/20 05:26:51;;;;;;;;;;;22.30;69.00;;;;;;4986819;28;19925;-70
2023/06/20 05:29:16;;;;;;;;;;;22.30;69.10;;;;;;4986728;28;20028;-70
2023/06/20 05:31:42;;;;;;;;;;;22.30;69.20;;;;;;4986870;28;20008;-70
2023/06/20 05:34:08;;;;;;;;;;;22.30;69.10;;;;;;5000233;28;19951;-70
2023/06/20 05:36:33;;;;;;;;;;;22.30;69.10;;;;;;5006204;28;20294;-70
2023/06/20 05:38:59;;;;;;;;;;;22.30;69.00;;;;;;5006391;28;19914;-70
2023/06/20 05:41:25;;;;;;;;;;;22.30;69.10;;;;;;4993574;28;19924;-70
2023/06/20 05:43:50;;;;;;;;;;;22.40;69.20;;;;;;4974838;28;20560;-70
2023/06/20 05:46:16;;;;;;;;;;;22.40;69.00;;;;;;5003961;28;19916;-70
2023/06/20 05:48:43;;;;;;;;;;;22.40;69.00;;;;;;4985557;28;19944;-70
2023/06/20 05:51:11;;;;;;;;;;;22.40;69.00;;;;;;4990076;28;20020;-70
2023/06/20 05:53:41;;;;;;;;;;;22.40;69.00;;;;;;4985005;28;19918;-70
2023/06/20 05:56:07;;;;;;;;;;;22.40;69.00;;;;;;4985216;28;19910;-70
2023/06/20 05:58:33;;;;;;;;;;;22.40;69.00;;;;;;4987018;28;20742;-70
2023/06/20 06:00:58;;;;;;;;;;;22.40;69.10;;;;;;4985527;28;19914;-70
2023/06/20 06:03:24;;;;;;;;;;;22.40;69.00;;;;;;4971105;28;19918;-70
2023/06/20 06:05:49;;;;;;;;;;;22.50;69.10;;;;;;4980582;28;20270;-70
2023/06/20 06:08:15;;;;;;;;;;;22.50;69.00;;;;;;4986599;28;20389;-70
2023/06/20 06:10:41;;;;;;;;;;;22.50;69.10;;;;;;4986470;28;19914;-70
2023/06/20 06:13:07;;;;;;;;;;;22.60;69.30;;;;;;4986566;28;20067;-70
2023/06/20 06:15:32;;;;;;;;;;;22.60;69.40;;;;;;4986264;28;19914;-70
2023/06/20 06:18:00;;;;;;;;;;;22.60;69.50;;;;;;4986337;28;20558;-69
2023/06/20 06:20:28;;;;;;;;;;;22.60;69.40;;;;;;4988094;28;19914;-70
2023/06/20 06:22:53;;;;;;;;;;;22.60;69.40;;;;;;4982703;28;19955;-70
2023/06/20 06:25:19;;;;;;;;;;;22.60;69.20;;;;;;4985759;28;19949;-69
2023/06/20 06:27:44;;;;;;;;;;;22.60;69.10;;;;;;4986107;28;19913;-70
2023/06/20 06:30:10;;;;;;;;;;;22.60;69.00;;;;;;4986121;28;19922;-70
2023/06/20 06:32:36;;;;;;;;;;;22.70;69.00;;;;;;4986112;28;19917;-70
2023/06/20 06:35:02;;;;;;;;;;;22.70;69.20;;;;;;4986340;28;20270;-70
2023/06/20 06:37:29;;;;;;;;;;;22.70;69.10;;;;;;4985661;28;19960;-70
2023/06/20 06:39:56;;;;;;;;;;;22.70;69.20;;;;;;4984684;28;19914;-70
2023/06/20 06:42:23;;;;;;;;;;;22.80;69.00;;;;;;4985976;28;19910;-70
2023/06/20 06:44:48;;;;;;;;;;;22.80;69.00;;;;;;4985927;28;19914;-70
2023/06/20 06:47:14;;;;;;;;;;;22.80;68.90;;;;;;4985324;28;19910;-69
2023/06/20 06:49:39;;;;;;;;;;;22.80;68.70;;;;;;5041200;28;19966;-70
2023/06/20 06:52:05;;;;;;;;;;;22.80;68.60;;;;;;4992512;28;20024;-70
2023/06/20 06:54:30;;;;;;;;;;;22.80;68.70;;;;;;4985978;28;19934;-69
2023/06/20 06:56:56;;;;;;;;;;;22.80;68.80;;;;;;4985619;28;19914;-70
2023/06/20 06:59:21;;;;;;;;;;;22.80;68.70;;;;;;4985809;28;19914;-70
2023/06/20 07:01:47;;;;;;;;;;;22.80;68.80;;;;;;4986000;28;19918;-69
2023/06/20 07:04:14;;;;;;;;;;;22.80;68.70;;;;;;4987287;28;19921;-70
2023/06/20 07:06:40;;;;;;;;;;;22.80;68.60;;;;;;5089637;28;19954;-69
2023/06/20 07:09:05;;;;;;;;;;;22.80;68.60;;;;;;5091887;28;19944;-70
2023/06/20 07:11:31;;;;;;;;;;;22.80;68.70;;;;;;5091916;28;20375;-70
2023/06/20 07:13:56;;;;;;;;;;;22.80;68.70;;;;;;5086406;28;19912;-70
2023/06/20 07:16:22;;;;;;;;;;;22.80;68.70;;;;;;5038300;28;19921;-70
2023/06/20 07:18:47;;;;;;;;;;;22.90;68.90;;;;;;4988976;28;19924;-70
2023/06/20 07:21:13;;;;;;;;;;;22.90;69.20;;;;;;4992510;28;19914;-70
2023/06/20 07:23:38;;;;;;;;;;;22.90;68.90;;;;;;5026202;28;19956;-70
2023/06/20 07:26:04;;;;;;;;;;;23.00;68.90;;;;;;5083709;28;19915;-70
2023/06/20 07:28:29;;;;;;;;;;;23.00;68.80;;;;;;5055652;28;19963;-70
2023/06/20 07:30:55;;;;;;;;;;;23.00;68.60;;;;;;5077789;28;19969;-70
2023/06/20 07:33:20;;;;;;;;;;;23.10;68.50;;;;;;5091739;28;19908;-70
2023/06/20 07:35:46;;;;;;;;;;;23.10;68.60;;;;;;5091097;28;20382;-69
2023/06/20 07:38:12;;;;;;;;;;;23.00;68.60;;;;;;5090633;28;19915;-70
2023/06/20 07:40:40;;;;;;;;;;;23.10;68.50;;;;;;5090880;28;19912;-69
2023/06/20 07:43:05;;;;;;;;;;;23.10;68.30;;;;;;5089880;28;19912;-70
2023/06/20 07:45:31;;;;;;;;;;;23.10;68.30;;;;;;5085299;28;19908;-70
2023/06/20 07:47:56;;;;;;;;;;;23.10;68.20;;;;;;4988852;28;19918;-70
2023/06/20 07:50:22;;;;;;;;;;;23.10;68.10;;;;;;4989979;28;20004;-70
2023/06/20 07:52:48;;;;;;;;;;;23.10;68.20;;;;;;4991062;28;19917;-70
2023/06/20 07:55:14;;;;;;;;;;;23.10;68.00;;;;;;4988505;28;19914;-70
2023/06/20 07:57:39;;;;;;;;;;;23.20;67.90;;;;;;4988500;28;19921;-70
2023/06/20 08:00:09;;;;;;;;;;;23.20;67.90;;;;;;4988589;28;19914;-69
2023/06/20 08:02:34;;;;;;;;;;;23.20;67.90;;;;;;4988453;28;19910;-70
2023/06/20 08:05:00;;;;;;;;;;;23.20;67.80;;;;;;4988449;28;19933;-70
2023/06/20 08:07:25;;;;;;;;;;;23.20;67.80;;;;;;4988150;28;19914;-70
2023/06/20 08:09:51;;;;;;;;;;;23.30;67.90;;;;;;4988295;28;19918;-70
2023/06/20 08:12:16;;;;;;;;;;;23.20;67.90;;;;;;4988476;28;19997;-70
2023/06/20 08:14:42;;;;;;;;;;;23.30;67.90;;;;;;4988286;28;19955;-70
2023/06/20 08:17:07;;;;;;;;;;;23.30;67.90;;;;;;4987750;28;20033;-70
2023/06/20 08:19:33;;;;;;;;;;;23.30;67.90;;;;;;4988544;28;19960;-70
2023/06/20 08:21:58;;;;;;;;;;;23.30;67.70;;;;;;4987110;28;19914;-70
2023/06/20 08:24:24;;;;;;;;;;;23.30;67.70;;;;;;4986530;28;20370;-70
2023/06/20 08:26:49;;;;;;;;;;;23.30;67.40;;;;;;4987916;28;19913;-70
2023/06/20 08:29:15;;;;;;;;;;;23.40;67.40;;;;;;4988078;28;19910;-70
2023/06/20 08:31:40;;;;;;;;;;;23.40;67.30;;;;;;4988202;28;19914;-70
2023/06/20 08:34:06;;;;;;;;;;;23.40;67.30;;;;;;4988163;28;19914;-70
2023/06/20 08:36:35;;;;;;;;;;;23.40;67.20;;;;;;4988005;28;19921;-70
2023/06/20 08:39:01;;;;;;;;;;;23.50;67.20;;;;;;4988157;28;20329;-70
2023/06/20 08:41:26;;;;;;;;;;;23.50;67.30;;;;;;4987952;28;20001;-70
2023/06/20 08:43:52;;;;;;;;;;;23.50;67.20;;;;;;4987811;28;20374;-70
2023/06/20 08:46:18;;;;;;;;;;;23.60;67.00;;;;;;4986259;28;19918;-69
2023/06/20 08:48:44;;;;;;;;;;;23.60;67.30;;;;;;4986401;28;19914;-70
2023/06/20 08:51:13;;;;;;;;;;;23.60;66.90;;;;;;4991468;28;20397;-70
2023/06/20 08:53:39;;;;;;;;;;;23.60;66.90;;;;;;4986448;28;20267;-70
2023/06/20 08:56:05;;;;;;;;;;;23.70;66.80;;;;;;4987678;28;20064;-70
2023/06/20 08:58:31;;;;;;;;;;;23.70;66.70;;;;;;5023827;28;19923;-70
2023/06/20 09:00:56;;;;;;;;;;;23.80;67.50;;;;;;5090247;28;19911;-70
2023/06/20 09:03:22;;;;;;;;;;;23.80;66.80;;;;;;5090194;28;20281;-70
2023/06/20 09:05:47;;;;;;;;;;;23.90;66.60;;;;;;5019364;28;20706;-70
2023/06/20 09:08:14;;;;;;;;;;;23.90;66.50;;;;;;4987194;28;19913;-70
2023/06/20 09:10:40;;;;;;;;;;;24.00;66.30;;;;;;4987055;28;19920;-70
2023/06/20 09:13:06;;;;;;;;;;;24.10;66.50;;;;;;4987187;28;20458;-70
2023/06/20 09:15:33;;;;;;;;;;;24.10;66.30;;;;;;4984971;28;20377;-70
2023/06/20 09:18:00;;;;;;;;;;;24.10;66.40;;;;;;4967896;28;19926;-70
2023/06/20 09:20:26;;;;;;;;;;;24.10;66.50;;;;;;4986847;28;19913;-70
2023/06/20 09:22:52;;;;;;;;;;;24.10;66.20;;;;;;5003079;28;19949;-70
2023/06/20 09:25:21;;;;;;;;;;;24.20;66.20;;;;;;4986975;28;19976;-70
2023/06/20 09:27:47;;;;;;;;;;;24.30;66.20;;;;;;4987263;28;20409;-70
2023/06/20 09:30:12;;;;;;;;;;;24.30;66.10;;;;;;4985037;28;19961;-70
2023/06/20 09:32:42;;;;;;;;;;;24.40;66.00;;;;;;4987373;28;19918;-70
2023/06/20 09:35:13;;;;;;;;;;;24.40;66.20;;;;;;4985652;28;20009;-70
2023/06/20 09:37:49;;;;;;;;;;;24.40;66.30;;;;;;4985542;28;19948;-70
2023/06/20 09:40:15;;;;;;;;;;;24.40;66.00;;;;;;4986990;28;20624;-70
2023/06/20 09:42:41;;;;;;;;;;;24.40;66.00;;;;;;4985827;28;19921;-70
2023/06/20 09:45:08;;;;;;;;;;;24.50;66.50;;;;;;4986939;28;19910;-70
2023/06/20 09:47:37;;;;;;;;;;;24.50;65.90;;;;;;4986865;28;19914;-70
2023/06/20 09:50:07;;;;;;;;;;;24.60;65.90;;;;;;4985648;28;19918;-70
2023/06/20 09:52:42;;;;;;;;;;;24.60;65.80;;;;;;4990502;28;19921;-70
2023/06/20 09:55:11;;;;;;;;;;;24.70;65.60;;;;;;4987057;28;20798;-70
2023/06/20 09:57:41;;;;;;;;;;;24.70;65.60;;;;;;4986858;28;20355;-70
2023/06/20 10:00:14;;;;;;;;;;;24.70;65.80;;;;;;4986769;28;20005;-70
2023/06/20 10:02:42;;;;;;;;;;;24.90;65.50;;;;;;4986699;28;19914;-70
2023/06/20 10:05:08;;;;;;;;;;;24.80;65.60;;;;;;4986640;28;20576;-70
2023/06/20 10:07:34;;;;;;;;;;;24.80;65.80;;;;;;4986552;28;19914;-70
2023/06/20 10:10:00;;;;;;;;;;;24.90;65.80;;;;;;4986410;28;19914;-70
2023/06/20 10:12:25;;;;;;;;;;;24.90;65.90;;;;;;4986681;28;20335;-70
2023/06/20 10:14:51;;;;;;;;;;;25.00;65.50;;;;;;4986525;28;19910;-70
2023/06/20 10:17:28;;;;;;;;;;;25.00;65.60;;;;;;4986157;28;20003;-70
2023/06/20 10:19:56;;;;;;;;;;;25.00;65.20;;;;;;4986665;28;19914;-70
2023/06/20 10:22:32;;;;;;;;;;;25.20;65.40;;;;;;4985241;28;19969;-70
2023/06/20 10:25:00;;;;;;;;;;;25.20;65.20;;;;;;4986090;28;19918;-70
2023/06/20 10:27:26;;;;;;;;;;;25.30;65.20;;;;;;4986396;28;19914;-70
2023/06/20 10:29:53;;;;;;;;;;;25.40;64.90;;;;;;4986623;28;20390;-70
2023/06/20 10:32:18;;;;;;;;;;;25.50;64.90;;;;;;4986556;28;19961;-70
2023/06/20 10:34:44;;;;;;;;;;;25.60;64.90;;;;;;4986601;28;19956;-70
2023/06/20 10:37:19;;;;;;;;;;;25.60;64.80;;;;;;4984763;28;20362;-70
2023/06/20 10:39:54;;;;;;;;;;;25.70;65.50;;;;;;4986913;28;19910;-70
2023/06/20 10:42:38;;;;;;;;;;;25.80;65.20;;;;;;4988459;28;19960;-71
2023/06/20 10:45:19;;;;;;;;;;;25.90;65.00;;;;;;4989783;28;20231;-70
2023/06/20 10:47:45;;;;;;;;;;;26.00;65.00;;;;;;4989525;28;19925;-71
2023/06/20 10:50:11;;;;;;;;;;;26.10;65.20;;;;;;4989523;28;20066;-70
2023/06/20 10:52:37;;;;;;;;;;;26.30;65.40;;;;;;4993124;28;20001;-71
2023/06/20 10:55:03;;;;;;;;;;;26.40;65.20;;;;;;4989458;28;19918;-71
2023/06/20 10:57:28;;;;;;;;;;;26.50;65.20;;;;;;4989349;28;19987;-70
2023/06/20 10:59:54;;;;;;;;;;;26.60;65.20;;;;;;4989645;28;19914;-71
2023/06/20 11:02:20;;;;;;;;;;;26.70;64.90;;;;;;4989452;28;19913;-71
2023/06/20 11:04:47;;;;;;;;;;;26.80;64.60;;;;;;5023861;28;19932;-71
2023/06/20 11:07:13;;;;;;;;;;;26.90;64.90;;;;;;4989061;28;20344;-71
2023/06/20 11:09:39;;;;;;;;;;;27.10;64.60;;;;;;4989186;28;19918;-71
2023/06/20 11:12:07;;;;;;;;;;;27.20;64.30;;;;;;4989344;28;19917;-70
2023/06/20 11:14:33;;;;;;;;;;;27.30;64.60;;;;;;4987926;28;19983;-71
2023/06/20 11:16:58;;;;;;;;;;;27.40;64.70;;;;;;4988955;28;19924;-71
2023/06/20 11:19:27;;;;;;;;;;;27.50;64.40;;;;;;4987816;28;19917;-71
2023/06/20 11:21:53;;;;;;;;;;;27.40;64.50;;;;;;5026633;28;20308;-71
2023/06/20 11:24:19;;;;;;;;;;;27.40;64.60;;;;;;5066989;28;19923;-71
2023/06/20 11:26:45;;;;;;;;;;;27.50;64.60;;;;;;5008310;28;19914;-71
2023/06/20 11:29:10;;;;;;;;;;;27.60;65.10;;;;;;5008587;28;19916;-71
2023/06/20 11:31:36;;;;;;;;;;;27.70;65.10;;;;;;5008589;28;20443;-71
2023/06/20 11:34:05;;;;;;;;;;;27.80;65.00;;;;;;5007387;28;19917;-71
2023/06/20 11:36:31;;;;;;;;;;;27.90;64.80;;;;;;5008315;28;19945;-71
2023/06/20 11:39:07;;;;;;;;;;;28.00;64.90;;;;;;5008314;28;20271;-70
2023/06/20 11:41:33;;;;;;;;;;;28.10;64.60;;;;;;4991965;28;19918;-71
2023/06/20 11:43:59;;;;;;;;;;;28.20;64.00;;;;;;4994679;28;19971;-71
2023/06/20 11:46:25;;;;;;;;;;;28.20;63.70;;;;;;5031880;28;19910;-71
2023/06/20 11:48:52;;;;;;;;;;;28.30;63.70;;;;;;4988541;28;20347;-71
2023/06/20 11:51:21;;;;;;;;;;;28.50;63.90;;;;;;4991458;28;19924;-71
2023/06/20 11:53:47;;;;;;;;;;;28.50;63.80;;;;;;4988251;28;19914;-71
2023/06/20 11:56:14;;;;;;;;;;;28.60;63.90;;;;;;4988033;28;19940;-71
2023/06/20 11:58:43;;;;;;;;;;;28.60;63.90;;;;;;4988209;28;19913;-70
2023/06/20 12:01:16;;;;;;;;;;;28.70;63.90;;;;;;4988532;28;19913;-71
2023/06/20 12:03:42;;;;;;;;;;;28.80;64.00;;;;;;4969160;28;19914;-71
2023/06/20 12:06:27;;;;;;;;;;;28.90;64.10;;;;;;4984778;28;19925;-71
2023/06/20 12:08:54;;;;;;;;;;;28.90;63.70;;;;;;4988188;28;19921;-71
2023/06/20 12:11:19;;;;;;;;;;;29.00;63.40;;;;;;4988296;28;20317;-71
2023/06/20 12:13:45;;;;;;;;;;;29.10;63.30;;;;;;4987927;28;19983;-71
2023/06/20 12:16:10;;;;;;;;;;;29.20;63.30;;;;;;4986273;28;19966;-71
2023/06/20 12:18:36;;;;;;;;;;;29.20;63.50;;;;;;4986774;28;19933;-71
2023/06/20 12:21:01;;;;;;;;;;;29.30;63.60;;;;;;4991648;28;19917;-71
2023/06/20 12:23:27;;;;;;;;;;;29.40;63.60;;;;;;4987531;28;19953;-71
2023/06/20 12:25:53;;;;;;;;;;;29.50;63.60;;;;;;4987722;28;20576;-71
2023/06/20 12:28:19;;;;;;;;;;;29.50;63.30;;;;;;4987820;28;20607;-71
2023/06/20 12:30:44;;;;;;;;;;;29.60;63.20;;;;;;4987640;28;20015;-71
2023/06/20 12:33:11;;;;;;;;;;;29.70;63.20;;;;;;4987666;28;19921;-71
2023/06/20 12:35:37;;;;;;;;;;;29.70;63.20;;;;;;4987033;28;20351;-71
2023/06/20 12:38:02;;;;;;;;;;;29.80;63.00;;;;;;4985058;28;20419;-71
2023/06/20 12:40:28;;;;;;;;;;;29.80;63.20;;;;;;4980623;28;19914;-71
2023/06/20 12:42:53;;;;;;;;;;;29.90;63.40;;;;;;4986332;28;20435;-71
2023/06/20 12:45:19;;;;;;;;;;;29.80;63.40;;;;;;4985960;28;19936;-71
2023/06/20 12:47:45;;;;;;;;;;;29.80;63.50;;;;;;4987278;28;19959;-71
2023/06/20 12:50:11;;;;;;;;;;;29.80;63.30;;;;;;4987540;28;20401;-71
2023/06/20 12:52:36;;;;;;;;;;;29.70;63.30;;;;;;5032259;28;19912;-71
2023/06/20 12:55:04;;;;;;;;;;;29.80;63.40;;;;;;5089539;28;19908;-71
2023/06/20 12:57:31;;;;;;;;;;;29.90;63.20;;;;;;5089221;28;19908;-71
2023/06/20 12:59:56;;;;;;;;;;;30.00;63.30;;;;;;5089450;28;20326;-71
2023/06/20 13:02:23;;;;;;;;;;;30.10;63.20;;;;;;5057227;28;19939;-71
2023/06/20 13:04:51;;;;;;;;;;;30.00;63.20;;;;;;4984626;28;19949;-71
2023/06/20 13:07:19;;;;;;;;;;;30.00;62.80;;;;;;4987162;28;19918;-71
2023/06/20 13:09:45;;;;;;;;;;;30.00;62.60;;;;;;4985584;28;20004;-70
2023/06/20 13:12:11;;;;;;;;;;;29.90;62.70;;;;;;4986682;28;20001;-71
2023/06/20 13:14:37;;;;;;;;;;;29.90;62.60;;;;;;4986736;28;19992;-71
2023/06/20 13:17:02;;;;;;;;;;;29.80;62.30;;;;;;4986377;28;19921;-71
2023/06/20 13:19:28;;;;;;;;;;;29.90;62.50;;;;;;5001351;28;19921;-71
2023/06/20 13:21:53;;;;;;;;;;;30.00;63.10;;;;;;4984977;28;19921;-71
2023/06/20 13:24:26;;;;;;;;;;;30.00;63.00;;;;;;5126086;27;19912;-69
2023/06/20 13:26:52;;;;;;;;;;;30.00;62.80;;;;;;5126196;27;19953;-69
2023/06/20 13:29:17;;;;;;;;;;;30.10;62.80;;;;;;5139808;27;19976;-69
2023/06/20 13:31:43;;;;;;;;;;;30.10;62.50;;;;;;5146929;27;19919;-69
2023/06/20 13:34:08;;;;;;;;;;;30.30;62.80;;;;;;5146115;27;19937;-69
2023/06/20 13:36:34;;;;;;;;;;;30.40;62.80;;;;;;5146090;27;19925;-69
2023/06/20 13:39:00;;;;;;;;;;;30.40;62.60;;;;;;5146139;27;19976;-69
2023/06/20 13:41:26;;;;;;;;;;;30.50;62.40;;;;;;5146198;27;19907;-69
2023/06/20 13:43:52;;;;;;;;;;;30.60;62.00;;;;;;5133552;27;19912;-69
2023/06/20 13:46:19;;;;;;;;;;;30.70;62.20;;;;;;5124823;27;19912;-69
2023/06/20 13:48:47;;;;;;;;;;;30.70;61.30;;;;;;5125304;27;19991;-69
2023/06/20 13:51:14;;;;;;;;;;;30.70;61.80;;;;;;5128183;27;19912;-69
2023/06/20 13:53:40;;;;;;;;;;;30.60;61.00;;;;;;5124786;27;19916;-69
2023/06/20 13:56:06;;;;;;;;;;;30.60;61.20;;;;;;5123752;28;19908;-69
2023/06/20 13:58:31;;;;;;;;;;;30.60;61.20;;;;;;5125057;27;19915;-69
2023/06/20 14:00:57;;;;;;;;;;;30.50;61.60;;;;;;5125240;27;19911;-69
2023/06/20 14:03:22;;;;;;;;;;;30.50;61.60;;;;;;5125054;28;19938;-69
2023/06/20 14:05:48;;;;;;;;;;;30.50;61.70;;;;;;5123286;28;19984;-70
2023/06/20 14:08:13;;;;;;;;;;;30.50;62.20;;;;;;5125023;27;19920;-69
2023/06/20 14:10:39;;;;;;;;;;;30.60;61.90;;;;;;5122938;27;19957;-69
2023/06/20 14:13:05;;;;;;;;;;;30.60;61.90;;;;;;5124755;27;20015;-69
2023/06/20 14:15:30;;;;;;;;;;;30.70;62.30;;;;;;5123077;27;19918;-69